Time;durP1;ratioP1;P1;durP2;ratioP2;P2;SDS_P1;SDS_P2;PMS_P1;PMS_P2;Temp;Humidity;BMP_temperature;BMP_pressure;BME280_temperature;BME280_humidity;BME280_pressure;Samples;Min_cycle;Max_cycle;Signal;HPM_P1;HPM_P2
2023/02/06 00:00:41;;;;;;;17.27;5.82;;;;;;;3.67;100.00;103515.84;4981120;28;20104;-77
2023/02/06 00:03:06;;;;;;;15.65;7.38;;;;;;;3.68;100.00;103519.41;4997199;28;20042;-77
2023/02/06 00:05:32;;;;;;;21.67;9.32;;;;;;;3.73;100.00;103520.03;4981089;28;20113;-77
2023/02/06 00:07:58;;;;;;;22.50;10.02;;;;;;;3.85;100.00;103519.53;4996896;28;20034;-76
2023/02/06 00:10:23;;;;;;;38.08;18.30;;;;;;;3.96;100.00;103522.63;4980889;28;20383;-77
2023/02/06 00:12:49;;;;;;;11.68;5.15;;;;;;;4.10;100.00;103524.72;5013307;28;20046;-77
2023/02/06 00:15:15;;;;;;;27.45;11.70;;;;;;;4.01;100.00;103477.16;4980600;28;20033;-76
2023/02/06 00:17:41;;;;;;;16.33;6.45;;;;;;;4.58;100.00;103528.81;4996342;28;20400;-78
2023/02/06 00:20:08;;;;;;;12.63;4.72;;;;;;;4.78;100.00;103525.22;4980758;28;20049;-77
2023/02/06 00:22:34;;;;;;;24.23;10.60;;;;;;;4.96;100.00;103522.66;4996727;28;20038;-77
2023/02/06 00:25:00;;;;;;;27.10;13.63;;;;;;;5.11;100.00;103529.06;4980657;28;20368;-78
2023/02/06 00:27:26;;;;;;;16.60;7.13;;;;;;;5.20;100.00;103524.16;4996913;28;20496;-78
2023/02/06 00:29:52;;;;;;;18.20;10.15;;;;;;;5.15;100.00;103496.84;4996795;28;20034;-78
2023/02/06 00:32:17;;;;;;;16.48;5.68;;;;;;;5.35;100.00;103522.59;5013132;28;20052;-78
2023/02/06 00:34:43;;;;;;;21.33;6.35;;;;;;;5.47;100.00;103502.44;4996550;28;20136;-79
2023/02/06 00:37:09;;;;;;;13.40;5.50;;;;;;;5.55;100.00;103502.06;4996545;28;20030;-78
2023/02/06 00:39:35;;;;;;;15.27;5.75;;;;;;;5.59;100.00;103499.16;4980518;28;20040;-79
2023/02/06 00:42:01;;;;;;;13.43;5.22;;;;;;;5.68;100.00;103495.16;5012618;28;20092;-77
2023/02/06 00:44:27;;;;;;;17.42;5.60;;;;;;;5.76;100.00;103497.47;4980503;28;20034;-77
2023/02/06 00:46:53;;;;;;;13.60;4.53;;;;;;;5.80;100.00;103485.69;4996797;28;20045;-78
2023/02/06 00:49:19;;;;;;;7.60;3.60;;;;;;;5.89;100.00;103488.75;4996572;28;20125;-77
2023/02/06 00:51:45;;;;;;;10.88;3.70;;;;;;;5.98;100.00;103495.47;4996589;28;20037;-78
2023/02/06 00:54:10;;;;;;;14.57;4.45;;;;;;;5.98;100.00;103482.13;4996615;28;20459;-76
2023/02/06 00:56:36;;;;;;;9.38;3.55;;;;;;;6.06;100.00;103498.63;4980216;28;20365;-79
2023/02/06 00:59:05;;;;;;;8.70;2.53;;;;;;;5.64;100.00;103422.41;4980323;28;20119;-78
2023/02/06 01:01:31;;;;;;;14.98;4.72;;;;;;;6.00;100.00;103476.69;5012268;28;20069;-78
2023/02/06 01:03:57;;;;;;;2.55;1.83;;;;;;;6.10;100.00;103485.94;4980438;28;20073;-78
2023/02/06 01:06:22;;;;;;;9.35;4.72;;;;;;;6.11;100.00;103480.53;5012387;28;20034;-78
2023/02/06 01:08:48;;;;;;;11.15;4.13;;;;;;;6.06;100.00;103477.25;4979870;28;20080;-78
2023/02/06 01:11:19;;;;;;;10.32;3.55;;;;;;;6.13;100.00;103477.78;4996489;28;20040;-78
2023/02/06 01:13:45;;;;;;;9.43;3.75;;;;;;;5.88;100.00;103436.28;5012202;28;20073;-79
2023/02/06 01:16:19;;;;;;;9.65;3.25;;;;;;;6.10;100.00;103476.13;4995608;28;20373;-76
2023/02/06 01:18:45;;;;;;;10.48;3.45;;;;;;;5.94;100.00;103446.69;5012299;28;20393;-78
2023/02/06 01:21:16;;;;;;;10.35;3.83;;;;;;;6.00;100.00;103453.50;4995302;28;20030;-77
2023/02/06 01:23:42;;;;;;;12.13;3.60;;;;;;;6.06;100.00;103446.97;5012154;28;20075;-77
2023/02/06 01:26:11;;;;;;;7.97;3.00;;;;;;;6.17;100.00;103447.28;4996043;28;20038;-78
2023/02/06 01:28:38;;;;;;;9.57;4.07;;;;;;;6.33;100.00;103452.69;4996060;28;20380;-78
2023/02/06 01:31:10;;;;;;;13.60;4.55;;;;;;;6.37;100.00;103422.16;4995781;28;20103;-78
2023/02/06 01:33:36;;;;;;;12.07;3.97;;;;;;;6.53;100.00;103436.41;5012572;28;20124;-78
2023/02/06 01:36:02;;;;;;;8.13;3.67;;;;;;;6.56;100.00;103420.22;4995529;28;20129;-78
2023/02/06 01:38:28;;;;;;;8.07;3.47;;;;;;;6.65;100.00;103432.22;4995990;28;20180;-77
2023/02/06 01:40:58;;;;;;;12.43;4.63;;;;;;;6.64;100.00;103421.59;4995912;28;20038;-77
2023/02/06 01:43:29;;;;;;;16.02;4.18;;;;;;;6.63;100.00;103422.56;5011882;28;20046;-79
2023/02/06 01:45:55;;;;;;;14.95;4.80;;;;;;;6.68;100.00;103428.53;4996112;28;20053;-76
2023/02/06 01:48:46;;;;;;;12.00;4.65;;;;;;;6.69;100.00;103432.91;5014967;28;20037;-77
2023/02/06 01:51:15;;;;;;;14.93;5.85;;;;;;;6.65;100.00;103426.03;5002338;28;20030;-77
2023/02/06 01:53:41;;;;;;;16.63;5.18;;;;;;;6.51;100.00;103398.25;5015717;28;20030;-78
2023/02/06 01:56:10;;;;;;;13.95;5.63;;;;;;;6.62;100.00;103411.00;4999539;28;20034;-77
2023/02/06 01:58:40;;;;;;;16.80;5.55;;;;;;;6.54;100.00;103399.88;4983530;28;20445;-77
2023/02/06 02:01:06;;;;;;;19.95;5.35;;;;;;;6.55;100.00;103402.44;4983434;28;20041;-79
2023/02/06 02:03:35;;;;;;;13.80;4.78;;;;;;;6.58;100.00;103404.94;4999424;28;20121;-79
2023/02/06 02:06:05;;;;;;;8.02;3.60;;;;;;;6.61;100.00;103411.94;5015316;28;20476;-76
2023/02/06 02:08:36;;;;;;;11.48;4.88;;;;;;;6.54;100.00;103397.22;4999475;28;20033;-78
2023/02/06 02:11:03;;;;;;;15.02;5.28;;;;;;;6.62;100.00;103402.13;5015233;28;20538;-76
2023/02/06 02:13:30;;;;;;;12.02;5.15;;;;;;;6.60;100.00;103394.19;5015514;28;20475;-76
2023/02/06 02:16:00;;;;;;;10.23;4.45;;;;;;;6.60;100.00;103389.69;4999340;28;20040;-78
2023/02/06 02:18:51;;;;;;;18.67;5.00;;;;;;;6.57;100.00;103376.50;4998793;28;20476;-77
2023/02/06 02:21:35;;;;;;;11.50;4.13;;;;;;;6.64;100.00;103381.50;5015641;28;20065;-77
2023/02/06 02:24:25;;;;;;;8.68;3.97;;;;;;;6.63;100.00;103380.63;5015190;28;20069;-77
2023/02/06 02:27:17;;;;;;;15.85;5.28;;;;;;;6.56;100.00;103369.44;4999193;28;20038;-78
2023/02/06 02:29:49;;;;;;;8.45;4.32;;;;;;;6.65;100.00;103377.91;5015007;28;20030;-76
2023/02/06 02:32:29;;;;;;;7.75;4.72;;;;;;;6.46;100.00;103346.00;5014813;28;20034;-77
2023/02/06 02:35:04;;;;;;;18.13;5.72;;;;;;;6.60;100.00;103368.31;4982894;28;20030;-77
2023/02/06 02:37:55;;;;;;;9.57;4.25;;;;;;;6.66;100.00;103368.91;5014305;28;20038;-78
2023/02/06 02:40:42;;;;;;;11.82;4.68;;;;;;;6.72;100.00;103369.44;4998889;28;20124;-78
2023/02/06 02:43:27;;;;;;;12.82;5.50;;;;;;;6.70;100.00;103363.31;4998428;28;20025;-78
2023/02/06 02:46:08;;;;;;;15.70;5.28;;;;;;;6.52;100.00;103341.16;5014758;28;20044;-78
2023/02/06 02:48:42;;;;;;;13.57;4.85;;;;;;;6.55;100.00;103359.69;4982297;28;20083;-77
2023/02/06 02:51:08;;;;;;;14.27;5.70;;;;;;;6.56;100.00;103358.75;5014545;28;20480;-78
2023/02/06 02:53:36;;;;;;;13.93;5.28;;;;;;;6.55;100.00;103364.16;4998701;28;20042;-77
2023/02/06 02:56:14;;;;;;;8.88;3.92;;;;;;;6.45;100.00;103339.75;4997855;28;20036;-77
2023/02/06 02:58:40;;;;;;;15.93;5.65;;;;;;;6.45;100.00;103338.91;4998769;28;20476;-77
2023/02/06 03:01:10;;;;;;;6.88;2.97;;;;;;;6.58;100.00;103350.63;4998525;28;20038;-77
2023/02/06 03:03:38;;;;;;;18.42;6.45;;;;;;;6.57;100.00;103343.56;4998429;28;20033;-77
2023/02/06 03:06:31;;;;;;;15.65;6.03;;;;;;;6.55;100.00;103332.94;4998390;28;20392;-77
2023/02/06 03:09:32;;;;;;;18.27;5.57;;;;;;;6.55;100.00;103330.28;5014019;28;20120;-77
2023/02/06 03:12:25;;;;;;;16.90;5.45;;;;;;;6.52;100.00;103313.56;4958235;28;20065;-78
2023/02/06 03:14:55;;;;;;;23.23;5.60;;;;;;;6.61;100.00;103326.38;5012438;28;20539;-79
2023/02/06 03:17:48;;;;;;;11.38;6.38;;;;;;;6.61;100.00;103313.03;4997296;28;20026;-78
2023/02/06 03:20:15;;;;;;;13.23;5.32;;;;;;;6.54;100.00;103304.50;4996402;28;20388;-78
2023/02/06 03:22:43;;;;;;;17.10;5.60;;;;;;;6.54;100.00;103306.31;4981013;28;20041;-77
2023/02/06 03:25:15;;;;;;;24.52;6.57;;;;;;;6.59;100.00;103304.25;5013618;28;20037;-77
2023/02/06 03:27:42;;;;;;;21.60;5.63;;;;;;;6.57;100.00;103295.44;4997650;28;20068;-78
2023/02/06 03:30:10;;;;;;;18.77;7.75;;;;;;;6.60;100.00;103304.16;4981122;28;20148;-77
2023/02/06 03:32:40;;;;;;;23.15;7.80;;;;;;;6.53;100.00;103288.53;4981954;28;20080;-78
2023/02/06 03:35:16;;;;;;;28.20;8.85;;;;;;;6.57;100.00;103295.44;4997456;28;20056;-79
2023/02/06 03:37:45;;;;;;;21.05;9.20;;;;;;;6.52;100.00;103287.69;5013743;28;20112;-78
2023/02/06 03:40:11;;;;;;;25.50;8.43;;;;;;;6.44;100.00;103273.91;4997710;28;20132;-79
2023/02/06 03:42:43;;;;;;;20.67;6.78;;;;;;;6.54;100.00;103285.78;4996749;28;20049;-77
2023/02/06 03:45:28;;;;;;;17.25;6.15;;;;;;;6.55;100.00;103282.16;4982456;28;20077;-78
2023/02/06 03:47:59;;;;;;;21.80;6.03;;;;;;;6.55;100.00;103278.63;5009893;28;20480;-77
2023/02/06 03:50:25;;;;;;;15.02;6.60;;;;;;;6.58;100.00;103287.31;4997956;28;20107;-77
2023/02/06 03:52:53;;;;;;;12.60;5.50;;;;;;;6.63;100.00;103278.19;5013671;28;20053;-78
2023/02/06 03:55:21;;;;;;;18.83;6.32;;;;;;;6.68;100.00;103282.31;4996862;28;20030;-78
2023/02/06 03:57:50;;;;;;;7.28;3.33;;;;;;;6.71;100.00;103278.59;5013278;28;20446;-78
2023/02/06 04:00:18;;;;;;;16.77;6.70;;;;;;;6.77;100.00;103280.91;4996939;28;20464;-78
2023/02/06 04:02:46;;;;;;;19.88;6.78;;;;;;;6.79;100.00;103279.88;5012520;28;20392;-76
2023/02/06 04:05:13;;;;;;;20.17;6.32;;;;;;;6.80;100.00;103286.09;4997549;28;20053;-76
2023/02/06 04:07:41;;;;;;;18.85;6.57;;;;;;;6.80;100.00;103270.94;4997056;28;20046;-77
2023/02/06 04:10:10;;;;;;;24.52;6.53;;;;;;;6.71;100.00;103263.41;4978940;28;20073;-76
2023/02/06 04:12:35;;;;;;;16.90;6.72;;;;;;;6.74;100.00;103265.06;4981104;28;20136;-76
2023/02/06 04:15:01;;;;;;;28.70;8.48;;;;;;;6.79;100.00;103273.69;4981054;28;20042;-76
2023/02/06 04:17:29;;;;;;;18.95;6.72;;;;;;;6.75;100.00;103267.66;5012541;28;20034;-76
2023/02/06 04:19:55;;;;;;;20.15;7.25;;;;;;;6.83;100.00;103269.88;4980951;28;20052;-76
2023/02/06 04:22:20;;;;;;;30.45;8.48;;;;;;;6.77;100.00;103265.75;4980353;28;20080;-76
2023/02/06 04:24:46;;;;;;;24.40;8.77;;;;;;;6.81;100.00;103272.63;4997059;28;20084;-77
2023/02/06 04:27:13;;;;;;;24.67;9.48;;;;;;;6.78;100.00;103261.28;4979632;28;20116;-78
2023/02/06 04:29:39;;;;;;;20.38;9.25;;;;;;;6.81;100.00;103263.75;5012838;28;20033;-77
2023/02/06 04:32:05;;;;;;;22.55;7.63;;;;;;;6.78;100.00;103261.28;4980700;28;20030;-77
2023/02/06 04:34:31;;;;;;;21.13;7.22;;;;;;;6.83;100.00;103269.88;4995306;28;20065;-77
2023/02/06 04:36:58;;;;;;;19.60;6.80;;;;;;;6.86;100.00;103264.34;4996253;28;20065;-77
2023/02/06 04:39:24;;;;;;;20.13;8.75;;;;;;;6.89;100.00;103266.84;4996656;28;20136;-77
2023/02/06 04:41:50;;;;;;;15.20;5.97;;;;;;;6.93;100.00;103251.47;4995527;28;20472;-76
2023/02/06 04:44:16;;;;;;;17.27;6.47;;;;;;;6.98;100.00;103250.22;4980157;28;20084;-77
2023/02/06 04:46:42;;;;;;;17.60;6.80;;;;;;;7.09;100.00;103254.09;4996560;28;20037;-76
2023/02/06 04:49:09;;;;;;;12.45;4.75;;;;;;;7.09;100.00;103251.41;4996721;28;20366;-77
2023/02/06 04:51:34;;;;;;;8.90;4.63;;;;;;;7.22;100.00;103255.06;5011551;28;20100;-76
2023/02/06 04:54:01;;;;;;;12.73;5.30;;;;;;;7.23;100.00;103246.09;4980642;28;20460;-76
2023/02/06 04:56:27;;;;;;;17.58;5.50;;;;;;;7.19;100.00;103239.22;4980333;28;20037;-76
2023/02/06 04:58:53;;;;;;;19.30;4.78;;;;;;;7.28;100.00;103249.38;5011729;28;20030;-77
2023/02/06 05:01:19;;;;;;;15.23;5.65;;;;;;;7.29;100.00;103247.53;4996332;28;20030;-76
2023/02/06 05:03:45;;;;;;;13.50;5.60;;;;;;;7.27;100.00;103242.28;5012283;28;20103;-77
2023/02/06 05:06:11;;;;;;;15.60;5.32;;;;;;;7.27;100.00;103247.63;4995667;28;20038;-77
2023/02/06 05:08:37;;;;;;;16.27;5.65;;;;;;;7.19;100.00;103236.53;5012704;28;20396;-76
2023/02/06 05:11:03;;;;;;;14.57;5.82;;;;;;;7.24;100.00;103232.63;4995557;28;20037;-77
2023/02/06 05:13:29;;;;;;;17.80;6.65;;;;;;;7.11;100.00;103209.38;4996461;28;20461;-76
2023/02/06 05:15:56;;;;;;;16.50;5.03;;;;;;;7.19;100.00;103239.22;4995803;28;20033;-77
2023/02/06 05:18:23;;;;;;;17.25;6.00;;;;;;;7.24;100.00;103247.81;5012868;28;20034;-76
2023/02/06 05:20:50;;;;;;;19.00;5.70;;;;;;;7.22;100.00;103236.34;5012530;28;20090;-76
2023/02/06 05:23:16;;;;;;;17.30;6.22;;;;;;;7.24;100.00;103229.94;5016326;28;20044;-77
2023/02/06 05:25:42;;;;;;;19.52;8.27;;;;;;;7.30;100.00;103230.53;4999909;28;20033;-76
2023/02/06 05:28:07;;;;;;;14.95;4.07;;;;;;;7.35;100.00;103240.00;5015325;28;20384;-77
2023/02/06 05:30:33;;;;;;;5.97;2.53;;;;;;;7.29;100.00;103228.81;5000284;28;20026;-76
2023/02/06 05:33:01;;;;;;;8.57;2.50;;;;;;;7.32;100.00;103237.50;4999621;28;20033;-78
2023/02/06 05:35:28;;;;;;;6.78;3.03;;;;;;;7.38;100.00;103245.19;5000449;28;20034;-76
2023/02/06 05:37:54;;;;;;;15.77;5.05;;;;;;;7.26;100.00;103229.84;4999608;28;20034;-76
2023/02/06 05:40:19;;;;;;;12.25;4.07;;;;;;;7.31;100.00;103234.94;4983322;28;20419;-77
2023/02/06 05:42:45;;;;;;;12.50;4.18;;;;;;;7.24;100.00;103229.94;4999923;28;20033;-77
2023/02/06 05:45:13;;;;;;;15.63;4.75;;;;;;;7.13;100.00;103207.47;4983476;28;20076;-77
2023/02/06 05:47:38;;;;;;;3.28;1.65;;;;;;;7.21;100.00;103239.97;4999749;28;20098;-77
2023/02/06 05:50:05;;;;;;;15.98;5.35;;;;;;;7.16;100.00;103226.03;4983685;28;20144;-76
2023/02/06 05:52:30;;;;;;;17.20;4.82;;;;;;;7.11;100.00;103226.28;4999826;28;20038;-76
2023/02/06 05:54:56;;;;;;;18.30;4.47;;;;;;;7.05;100.00;103226.66;4998287;28;20041;-77
2023/02/06 05:57:22;;;;;;;19.13;4.82;;;;;;;7.01;100.00;103228.69;4999575;28;20383;-76
2023/02/06 05:59:47;;;;;;;17.55;5.18;;;;;;;6.93;100.00;103217.59;4998796;28;20042;-78
2023/02/06 06:02:13;;;;;;;14.88;4.97;;;;;;;6.95;100.00;103217.47;4999225;28;20468;-76
2023/02/06 06:04:39;;;;;;;14.93;5.40;;;;;;;6.87;100.00;103201.03;5015851;28;20084;-77
2023/02/06 06:07:04;;;;;;;13.73;4.68;;;;;;;6.91;100.00;103221.28;5015306;28;20029;-77
2023/02/06 06:09:30;;;;;;;11.65;3.70;;;;;;;6.99;100.00;103216.34;4999542;28;20120;-76
2023/02/06 06:11:56;;;;;;;3.65;2.40;;;;;;;6.94;100.00;103208.59;4998814;28;20076;-79
2023/02/06 06:14:21;;;;;;;20.92;5.55;;;;;;;6.99;100.00;103205.66;4998652;28;20034;-77
2023/02/06 06:16:47;;;;;;;13.57;4.28;;;;;;;6.97;100.00;103196.84;5015550;28;20053;-76
2023/02/06 06:19:13;;;;;;;16.55;5.50;;;;;;;6.88;100.00;103176.88;4982381;28;20029;-76
2023/02/06 06:21:38;;;;;;;34.80;8.98;;;;;;;7.00;100.00;103192.16;4983152;28;20040;-76
2023/02/06 06:24:04;;;;;;;31.98;7.38;;;;;;;6.99;100.00;103177.06;4999153;28;20046;-77
2023/02/06 06:26:30;;;;;;;29.10;6.82;;;;;;;7.00;100.00;103173.44;4998497;28;20069;-76
2023/02/06 06:28:55;;;;;;;32.90;8.20;;;;;;;7.16;100.00;103186.75;4982996;28;20033;-76
2023/02/06 06:31:21;;;;;;;32.17;8.80;;;;;;;7.13;100.00;103186.94;4997804;28;20450;-77
2023/02/06 06:33:47;;;;;;;28.23;9.20;;;;;;;7.20;100.00;103179.41;4982003;28;20026;-76
2023/02/06 06:36:13;;;;;;;14.77;5.18;;;;;;;7.14;100.00;103166.38;4997515;28;20034;-76
2023/02/06 06:38:38;;;;;;;10.98;3.95;;;;;;;7.24;100.00;103180.91;4998510;28;20060;-77
2023/02/06 06:41:05;;;;;;;16.27;4.75;;;;;;;7.25;100.00;103183.50;4998770;28;20128;-76
2023/02/06 06:43:31;;;;;;;14.23;3.97;;;;;;;7.26;100.00;103177.19;4981253;28;20392;-76
2023/02/06 06:45:59;;;;;;;14.30;4.93;;;;;;;7.28;100.00;103179.78;4982645;28;20040;-77
2023/02/06 06:48:25;;;;;;;16.58;5.38;;;;;;;7.28;100.00;103182.47;4999161;28;20096;-76
2023/02/06 06:50:51;;;;;;;27.75;6.70;;;;;;;7.36;100.00;103177.50;4981224;28;20436;-76
2023/02/06 06:53:17;;;;;;;35.95;8.82;;;;;;;7.32;100.00;103175.09;4998694;28;20053;-76
2023/02/06 06:55:43;;;;;;;32.95;6.80;;;;;;;7.34;100.00;103182.06;4998005;28;20038;-78
2023/02/06 06:58:09;;;;;;;33.67;7.47;;;;;;;7.38;100.00;103180.94;4981779;28;20041;-77
2023/02/06 07:00:35;;;;;;;23.10;7.80;;;;;;;7.32;100.00;103169.75;4998278;28;20088;-77
2023/02/06 07:03:00;;;;;;;20.17;6.80;;;;;;;7.40;100.00;103186.19;5013653;28;20030;-77
2023/02/06 07:05:26;;;;;;;14.45;4.75;;;;;;;7.38;100.00;103188.09;4998487;28;20030;-77
2023/02/06 07:07:54;;;;;;;10.40;3.15;;;;;;;7.44;100.00;103185.91;4982330;28;20113;-76
2023/02/06 07:10:20;;;;;;;18.75;5.13;;;;;;;7.39;100.00;103174.63;4997187;28;20046;-77
2023/02/06 07:12:45;;;;;;;21.05;5.03;;;;;;;7.44;100.00;103183.22;4998361;28;20383;-76
2023/02/06 07:15:11;;;;;;;13.32;5.10;;;;;;;7.47;100.00;103180.34;4997897;28;20042;-77
2023/02/06 07:17:37;;;;;;;20.70;5.10;;;;;;;7.41;100.00;103175.38;4997080;28;20041;-77
2023/02/06 07:20:04;;;;;;;19.75;5.65;;;;;;;7.47;100.00;103180.34;5014108;28;20464;-77
2023/02/06 07:22:30;;;;;;;18.48;5.25;;;;;;;7.49;100.00;103182.94;4997585;28;20053;-77
2023/02/06 07:24:55;;;;;;;23.55;6.18;;;;;;;7.51;100.00;103189.03;4999042;28;20056;-76
2023/02/06 07:27:21;;;;;;;18.35;4.45;;;;;;;7.55;100.00;103187.06;4997926;28;20383;-77
2023/02/06 07:29:47;;;;;;;8.23;4.43;;;;;;;7.52;100.00;103173.88;4996944;28;20038;-77
2023/02/06 07:32:12;;;;;;;17.80;5.22;;;;;;;7.49;100.00;103177.59;4997800;28;20034;-76
2023/02/06 07:34:39;;;;;;;22.23;6.05;;;;;;;7.52;100.00;103176.53;5014063;28;20022;-76
2023/02/06 07:37:05;;;;;;;13.52;3.40;;;;;;;7.48;100.00;103178.53;4997009;28;20029;-77
2023/02/06 07:39:30;;;;;;;10.10;3.65;;;;;;;7.42;100.00;103166.41;4982428;28;20034;-77
2023/02/06 07:41:56;;;;;;;10.88;4.05;;;;;;;7.50;100.00;103165.91;4998147;28;20045;-77
2023/02/06 07:44:22;;;;;;;13.05;3.33;;;;;;;7.51;100.00;103174.81;4996611;28;20124;-78
2023/02/06 07:46:47;;;;;;;10.63;3.95;;;;;;;7.52;100.00;103169.38;5013850;28;20494;-79
2023/02/06 07:49:14;;;;;;;13.57;5.55;;;;;;;7.48;100.00;103168.69;4997932;28;20033;-78
2023/02/06 07:51:41;;;;;;;10.70;3.72;;;;;;;7.53;100.00;103167.53;4981042;28;20033;-78
2023/02/06 07:54:07;;;;;;;12.13;3.45;;;;;;;7.51;100.00;103175.66;5013815;28;20022;-79
2023/02/06 07:56:33;;;;;;;10.55;2.65;;;;;;;7.44;100.00;103156.47;5013748;28;20102;-77
2023/02/06 07:58:58;;;;;;;15.20;4.72;;;;;;;7.51;100.00;103158.75;4996926;28;20029;-78
2023/02/06 08:01:24;;;;;;;14.68;3.88;;;;;;;7.50;100.00;103165.91;4997121;28;20034;-78
2023/02/06 08:03:54;;;;;;;7.18;2.80;;;;;;;7.55;100.00;103165.63;4997481;28;20037;-79
2023/02/06 08:06:21;;;;;;;12.18;4.55;;;;;;;7.51;100.00;103158.75;4996732;28;20420;-79
2023/02/06 08:08:47;;;;;;;3.83;1.45;;;;;;;7.56;100.00;103162.00;4996870;28;20103;-78
2023/02/06 08:11:18;;;;;;;9.07;3.00;;;;;;;7.61;100.00;103174.13;4997360;28;20041;-78
2023/02/06 08:13:45;;;;;;;11.00;3.50;;;;;;;7.57;100.00;103159.22;4997077;28;20038;-78
2023/02/06 08:16:14;;;;;;;14.40;3.50;;;;;;;7.61;100.00;103159.88;4997082;28;20034;-78
2023/02/06 08:18:41;;;;;;;9.30;3.22;;;;;;;7.63;100.00;103158.81;5013389;28;20040;-79
2023/02/06 08:21:11;;;;;;;8.40;2.47;;;;;;;7.32;100.00;103109.03;4980631;28;20435;-78
2023/02/06 08:23:42;;;;;;;9.50;3.47;;;;;;;7.64;100.00;103163.22;5013220;28;20389;-78
2023/02/06 08:26:15;;;;;;;6.95;3.38;;;;;;;7.59;100.00;103159.97;4996430;28;20515;-77
2023/02/06 08:28:42;;;;;;;9.13;3.33;;;;;;;7.34;100.00;103119.66;4996924;28;20037;-77
2023/02/06 08:31:26;;;;;;;5.30;2.53;;;;;;;7.62;100.00;103166.94;4997115;28;20388;-76
2023/02/06 08:33:51;;;;;;;5.93;2.20;;;;;;;7.32;100.00;103121.56;4980601;28;20044;-76
2023/02/06 08:36:19;;;;;;;4.63;1.77;;;;;;;7.50;100.00;103163.25;4996623;28;20037;-78
2023/02/06 08:38:51;;;;;;;9.52;2.30;;;;;;;7.39;100.00;103139.81;5012839;28;20034;-79
2023/02/06 08:41:35;;;;;;;5.63;1.52;;;;;;;7.41;100.00;103150.41;5012519;28;20464;-76
2023/02/06 08:44:10;;;;;;;4.82;1.52;;;;;;;7.29;100.00;103137.81;5012611;28;20052;-77
2023/02/06 08:46:36;;;;;;;3.17;1.17;;;;;;;7.36;100.00;103163.25;4997206;28;20492;-76
2023/02/06 08:49:11;;;;;;;7.07;1.65;;;;;;;7.29;100.00;103145.84;5012797;28;20053;-77
2023/02/06 08:51:37;;;;;;;6.72;1.60;;;;;;;7.29;100.00;103153.88;4996169;28;20026;-79
2023/02/06 08:54:04;;;;;;;5.88;2.78;;;;;;;7.29;100.00;103153.88;4980423;28;20379;-77
2023/02/06 08:56:31;;;;;;;8.95;1.90;;;;;;;7.20;100.00;103139.25;4979718;28;20129;-78
2023/02/06 08:59:01;;;;;;;6.35;2.65;;;;;;;7.31;100.00;103147.47;4980403;28;20034;-78
2023/02/06 09:01:30;;;;;;;5.35;1.30;;;;;;;7.28;100.00;103139.66;5012376;28;20021;-78
2023/02/06 09:04:01;;;;;;;2.03;1.83;;;;;;;7.29;100.00;103153.88;5012387;28;20060;-78
2023/02/06 09:06:27;;;;;;;4.65;1.20;;;;;;;7.28;100.00;103145.00;5012573;28;20122;-78
2023/02/06 09:08:53;;;;;;;8.35;2.28;;;;;;;7.25;100.00;103142.50;4996209;28;20109;-78
2023/02/06 09:11:21;;;;;;;7.07;2.60;;;;;;;7.22;100.00;103140.91;4996111;28;20472;-77
2023/02/06 09:13:50;;;;;;;5.70;2.30;;;;;;;7.20;100.00;103141.94;4995990;28;20066;-77
2023/02/06 09:16:18;;;;;;;9.85;2.45;;;;;;;7.29;100.00;103143.19;5012227;28;20030;-78
2023/02/06 09:18:44;;;;;;;6.70;2.47;;;;;;;7.31;100.00;103130.56;5012318;28;20046;-77
2023/02/06 09:21:16;;;;;;;14.90;3.58;;;;;;;7.31;100.00;103119.88;4996158;28;20038;-79
2023/02/06 09:23:44;;;;;;;13.43;3.58;;;;;;;7.37;100.00;103127.50;4996064;28;20108;-77
2023/02/06 09:26:11;;;;;;;15.63;3.55;;;;;;;7.42;100.00;103136.09;5012527;28;20037;-78
2023/02/06 09:28:36;;;;;;;13.15;4.53;;;;;;;7.39;100.00;103118.41;5012258;28;20038;-77
2023/02/06 09:31:03;;;;;;;15.40;3.28;;;;;;;7.46;100.00;103119.75;4996269;28;20072;-77
2023/02/06 09:33:29;;;;;;;10.32;5.30;;;;;;;7.46;100.00;103106.38;5012055;28;20025;-77
2023/02/06 09:36:02;;;;;;;6.00;2.40;;;;;;;7.58;100.00;103112.75;4995702;28;20022;-76
2023/02/06 09:38:28;;;;;;;8.88;2.72;;;;;;;7.53;100.00;103097.94;5012410;28;20108;-77
2023/02/06 09:40:54;;;;;;;10.55;2.83;;;;;;;7.64;100.00;103104.31;4995935;28;20476;-76
2023/02/06 09:43:20;;;;;;;8.18;2.47;;;;;;;7.63;100.00;103099.91;4996018;28;20038;-77
2023/02/06 09:45:48;;;;;;;5.32;2.85;;;;;;;7.63;100.00;103105.28;4979934;28;20072;-77
2023/02/06 09:48:19;;;;;;;13.75;3.75;;;;;;;7.75;100.00;103106.28;4995846;28;20197;-76
2023/02/06 09:51:00;;;;;;;11.20;3.58;;;;;;;7.76;100.00;103109.84;4995949;28;20380;-77
2023/02/06 09:53:38;;;;;;;6.85;2.83;;;;;;;7.76;100.00;103115.19;4995646;28;20030;-77
2023/02/06 09:56:29;;;;;;;8.68;3.28;;;;;;;7.78;100.00;103108.78;5012265;28;20029;-77
2023/02/06 09:59:06;;;;;;;6.10;3.58;;;;;;;7.86;100.00;103117.19;5012228;28;20084;-78
2023/02/06 10:01:42;;;;;;;9.45;2.47;;;;;;;7.97;100.00;103118.28;5012262;28;20116;-78
2023/02/06 10:04:30;;;;;;;13.48;3.70;;;;;;;8.08;100.00;103119.28;5012282;28;20583;-78
2023/02/06 10:07:14;;;;;;;8.88;2.75;;;;;;;8.13;100.00;103122.53;5012087;28;20468;-78
2023/02/06 10:09:49;;;;;;;13.60;3.00;;;;;;;8.19;100.00;103107.84;5015566;28;20072;-77
2023/02/06 10:12:22;;;;;;;7.10;3.42;;;;;;;8.23;100.00;103098.66;4983348;28;20107;-77
2023/02/06 10:15:03;;;;;;;7.97;2.65;;;;;;;8.36;100.00;103104.91;5015625;28;20087;-77
2023/02/06 10:17:33;;;;;;;7.95;3.40;;;;;;;8.40;100.00;103115.47;4999154;28;20120;-76
2023/02/06 10:20:32;;;;;;;15.18;4.68;;;;;;;8.37;100.00;103103.94;4999200;28;20121;-77
2023/02/06 10:23:11;;;;;;;13.77;3.45;;;;;;;8.29;100.00;103092.88;4994255;28;20037;-76
2023/02/06 10:25:58;;;;;;;7.68;2.97;;;;;;;8.34;100.00;103096.09;5031498;28;20080;-76
2023/02/06 10:28:29;;;;;;;17.38;3.38;;;;;;;8.36;100.00;103098.66;5031391;28;20036;-76
2023/02/06 10:31:14;;;;;;;10.38;2.47;;;;;;;8.16;100.00;103070.56;4982742;28;20037;-76
2023/02/06 10:34:04;;;;;;;13.35;2.95;;;;;;;8.30;100.00;103078.50;5014820;28;20026;-77
2023/02/06 10:37:05;;;;;;;20.45;4.15;;;;;;;8.45;100.00;103089.19;5015130;28;20034;-77
2023/02/06 10:39:52;;;;;;;12.30;3.30;;;;;;;8.51;100.00;103088.78;4976850;28;20108;-77
2023/02/06 10:42:25;;;;;;;12.27;2.35;;;;;;;8.70;100.00;103093.72;5014726;28;20040;-76
2023/02/06 10:44:54;;;;;;;14.15;3.33;;;;;;;8.76;100.00;103088.81;5014338;28;20084;-76
2023/02/06 10:47:38;;;;;;;4.20;1.98;;;;;;;8.84;100.00;103087.38;5014930;28;20041;-77
2023/02/06 10:50:26;;;;;;;10.65;2.53;;;;;;;8.89;100.00;103082.56;4982483;28;20030;-76
2023/02/06 10:52:54;;;;;;;15.77;2.63;;;;;;;8.77;100.00;103065.50;4983534;28;20038;-77
2023/02/06 10:55:39;;;;;;;5.97;2.15;;;;;;;8.91;100.00;103084.16;5014401;28;20049;-77
2023/02/06 10:58:14;;;;;;;8.05;3.20;;;;;;;8.86;100.00;103080.09;5030632;28;20033;-77
2023/02/06 11:00:40;;;;;;;9.57;2.83;;;;;;;8.80;100.00;103076.03;4998372;28;20050;-77
2023/02/06 11:03:12;;;;;;;7.35;2.90;;;;;;;8.87;100.00;103076.47;4981357;28;20438;-78
2023/02/06 11:05:38;;;;;;;19.60;5.15;;;;;;;8.90;100.00;103082.47;4997945;28;20026;-78
2023/02/06 11:08:13;;;;;;;12.35;3.72;;;;;;;8.94;100.00;103081.25;4997745;28;20030;-78
2023/02/06 11:10:39;;;;;;;17.75;7.30;;;;;;;8.88;100.00;103051.34;4981519;28;20041;-78
2023/02/06 11:13:26;;;;;;;10.30;3.20;;;;;;;9.04;100.00;103065.38;4997196;28;20038;-77
2023/02/06 11:16:00;;;;;;;17.55;6.40;;;;;;;9.19;100.00;103071.50;5011784;28;20037;-77
2023/02/06 11:18:41;;;;;;;14.05;6.40;;;;;;;9.41;100.00;103070.78;5013879;28;20026;-78
2023/02/06 11:21:09;;;;;;;9.15;3.00;;;;;;;9.47;100.00;103048.84;4998126;28;20061;-77
2023/02/06 11:23:35;;;;;;;11.25;3.00;;;;;;;9.71;100.00;103061.44;5014048;28;20137;-79
2023/02/06 11:26:18;;;;;;;10.07;3.45;;;;;;;9.89;100.00;103065.44;4981588;28;20113;-77
2023/02/06 11:28:51;;;;;;;8.50;2.33;;;;;;;10.02;100.00;103050.09;5014018;28;20030;-77
2023/02/06 11:31:19;;;;;;;8.52;1.75;;;;;;;10.14;100.00;103042.97;5014112;28;20025;-78